Time;durP1;ratioP1;P1;durP2;ratioP2;P2;SDS_P1;SDS_P2;PMS_P1;PMS_P2;Temp;Humidity;BMP_temperature;BMP_pressure;BME280_temperature;BME280_humidity;BME280_pressure;Samples;Min_cycle;Max_cycle;Signal;HPM_P1;HPM_P2
2022/09/15 00:02:19;;;;;;;1.10;1.00;;;;;;;;;;8290030;28;20040;-60
2022/09/15 00:06:19;;;;;;;5.10;1.00;;;;;;;;;;8295319;28;20065;-61
2022/09/15 00:10:19;;;;;;;1.67;1.00;;;;;;;;;;8294581;28;20112;-61
2022/09/15 00:14:19;;;;;;;1.10;1.00;;;;;;;;;;8295140;28;20036;-61
2022/09/15 00:18:20;;;;;;;1.38;1.10;;;;;;;;;;8291334;28;20042;-62
2022/09/15 00:22:21;;;;;;;1.10;1.08;;;;;;;;;;8291958;28;20037;-61
2022/09/15 00:26:23;;;;;;;1.60;1.20;;;;;;;;;;8293522;28;20827;-61
2022/09/15 00:30:23;;;;;;;2.45;1.20;;;;;;;;;;8280528;28;20054;-61
2022/09/15 00:34:23;;;;;;;2.05;1.20;;;;;;;;;;8292540;28;20086;-60
2022/09/15 00:38:23;;;;;;;3.47;1.42;;;;;;;;;;8294672;28;20086;-61
2022/09/15 00:42:24;;;;;;;1.02;1.00;;;;;;;;;;8294412;28;20148;-61
2022/09/15 00:46:31;;;;;;;2.00;1.45;;;;;;;;;;8292667;28;20041;-61
2022/09/15 00:50:33;;;;;;;3.13;1.60;;;;;;;;;;8292662;28;20119;-62
2022/09/15 00:54:36;;;;;;;1.75;1.20;;;;;;;;;;8290508;28;20028;-62
2022/09/15 00:58:45;;;;;;;2.20;1.85;;;;;;;;;;8292395;28;20922;-61
2022/09/15 01:02:46;;;;;;;2.08;1.63;;;;;;;;;;8293144;28;20725;-61
2022/09/15 01:06:49;;;;;;;2.28;1.50;;;;;;;;;;8292339;28;20448;-60
2022/09/15 01:10:50;;;;;;;4.72;1.80;;;;;;;;;;8291985;28;20071;-62
2022/09/15 01:14:51;;;;;;;4.80;1.90;;;;;;;;;;8288741;28;20376;-61
2022/09/15 01:19:09;;;;;;;4.85;2.38;;;;;;;;;;8288094;28;20049;-61
2022/09/15 01:23:25;;;;;;;4.82;2.70;;;;;;;;;;8288094;28;20160;-61
2022/09/15 01:27:44;;;;;;;4.13;2.78;;;;;;;;;;8292192;28;20036;-61
2022/09/15 01:36:21;;;;;;;4.78;3.53;;;;;;;;;;8290549;28;20024;-61
2022/09/15 01:40:23;;;;;;;4.22;3.40;;;;;;;;;;8291977;28;20141;-61
2022/09/15 01:44:27;;;;;;;4.22;3.70;;;;;;;;;;8292028;28;20025;-61
2022/09/15 01:48:28;;;;;;;4.30;3.60;;;;;;;;;;8290245;28;20560;-60
2022/09/15 01:52:29;;;;;;;4.70;3.45;;;;;;;;;;8288727;28;20426;-61
2022/09/15 01:56:29;;;;;;;5.18;3.70;;;;;;;;;;8292631;28;20025;-66
2022/09/15 02:00:35;;;;;;;4.60;3.63;;;;;;;;;;8291436;28;20040;-61
2022/09/15 02:04:56;;;;;;;5.40;3.53;;;;;;;;;;8292301;28;20951;-60
2022/09/15 02:09:00;;;;;;;3.75;3.45;;;;;;;;;;8289898;28;20097;-61
2022/09/15 02:13:00;;;;;;;5.75;3.50;;;;;;;;;;8292667;28;20029;-61
2022/09/15 02:17:02;;;;;;;5.18;3.35;;;;;;;;;;8294043;28;21140;-61
2022/09/15 02:21:32;;;;;;;5.00;3.15;;;;;;;;;;8292874;28;20044;-61
2022/09/15 02:25:35;;;;;;;6.28;3.10;;;;;;;;;;8285189;28;20049;-61
2022/09/15 02:29:36;;;;;;;4.85;2.83;;;;;;;;;;8294812;28;20037;-61
2022/09/15 02:33:43;;;;;;;3.75;3.08;;;;;;;;;;8294876;28;20530;-61
2022/09/15 02:37:43;;;;;;;7.43;2.88;;;;;;;;;;8292808;28;20022;-60
2022/09/15 02:41:44;;;;;;;5.70;2.20;;;;;;;;;;8292638;28;20025;-60
2022/09/15 02:45:44;;;;;;;2.67;1.85;;;;;;;;;;8292807;28;20118;-61
2022/09/15 02:49:44;;;;;;;7.00;1.77;;;;;;;;;;8292287;28;20605;-61
2022/09/15 02:53:45;;;;;;;1.80;1.70;;;;;;;;;;8294145;28;20030;-61
2022/09/15 02:57:45;;;;;;;5.30;2.07;;;;;;;;;;8293849;28;20022;-61
2022/09/15 03:01:45;;;;;;;1.83;1.67;;;;;;;;;;8293353;28;20068;-61
2022/09/15 03:05:45;;;;;;;3.83;1.10;;;;;;;;;;8294813;28;20032;-61
2022/09/15 03:09:46;;;;;;;1.15;1.05;;;;;;;;;;8295187;28;20442;-60
2022/09/15 03:13:46;;;;;;;1.65;1.10;;;;;;;;;;8292255;28;20682;-61
2022/09/15 03:17:47;;;;;;;0.70;0.70;;;;;;;;;;8295645;28;20088;-61
2022/09/15 03:21:47;;;;;;;1.80;0.87;;;;;;;;;;8293171;28;20024;-60
2022/09/15 03:25:47;;;;;;;2.00;0.80;;;;;;;;;;8297259;28;20036;-61
2022/09/15 03:29:47;;;;;;;1.77;0.80;;;;;;;;;;8294990;28;20033;-61
2022/09/15 03:33:48;;;;;;;2.92;0.80;;;;;;;;;;8293929;28;20800;-60
2022/09/15 03:37:48;;;;;;;1.35;0.77;;;;;;;;;;8294552;28;20075;-61
2022/09/15 03:41:48;;;;;;;3.78;0.82;;;;;;;;;;8294376;28;20243;-62
2022/09/15 03:45:48;;;;;;;3.47;0.95;;;;;;;;;;8292333;28;20131;-63
2022/09/15 03:49:48;;;;;;;4.15;0.80;;;;;;;;;;8293335;28;20016;-61
2022/09/15 03:53:49;;;;;;;3.03;0.98;;;;;;;;;;8293376;28;20026;-61
2022/09/15 03:57:49;;;;;;;6.32;1.30;;;;;;;;;;8293083;28;20059;-61
2022/09/15 04:01:49;;;;;;;3.72;1.35;;;;;;;;;;8293785;28;20145;-60
2022/09/15 04:05:50;;;;;;;1.50;1.40;;;;;;;;;;8295272;28;20394;-61
2022/09/15 04:09:50;;;;;;;1.60;1.50;;;;;;;;;;8293832;28;20029;-61
2022/09/15 04:13:51;;;;;;;1.60;1.35;;;;;;;;;;8289742;28;20029;-62
2022/09/15 04:17:51;;;;;;;3.97;1.40;;;;;;;;;;8290591;28;20076;-60
2022/09/15 04:21:52;;;;;;;1.20;1.10;;;;;;;;;;8290185;28;20029;-60
2022/09/15 04:25:55;;;;;;;1.35;1.20;;;;;;;;;;8294955;28;20068;-60
2022/09/15 04:29:56;;;;;;;1.50;1.20;;;;;;;;;;8292440;28;20837;-61
2022/09/15 04:33:56;;;;;;;2.93;1.10;;;;;;;;;;8289996;28;20626;-60
2022/09/15 04:37:56;;;;;;;0.95;0.95;;;;;;;;;;8289380;28;20021;-61
2022/09/15 04:41:57;;;;;;;4.65;1.00;;;;;;;;;;8292196;28;21502;-61
2022/09/15 04:45:58;;;;;;;3.45;0.90;;;;;;;;;;8293731;28;20123;-61
2022/09/15 04:49:58;;;;;;;2.65;2.45;;;;;;;;;;8290243;28;20032;-61
2022/09/15 04:53:59;;;;;;;5.47;4.93;;;;;;;;;;8285683;28;20025;-62
2022/09/15 04:57:59;;;;;;;9.63;8.63;;;;;;;;;;8293394;28;20056;-61
2022/09/15 05:01:59;;;;;;;10.10;9.00;;;;;;;;;;8289236;28;20114;-61
2022/09/15 05:06:00;;;;;;;11.65;10.45;;;;;;;;;;8292527;28;20028;-61
2022/09/15 05:10:00;;;;;;;12.20;10.35;;;;;;;;;;8288405;28;20028;-60
2022/09/15 05:14:00;;;;;;;12.02;9.77;;;;;;;;;;8290559;28;20022;-61
2022/09/15 05:18:00;;;;;;;10.95;9.48;;;;;;;;;;8279744;28;20087;-61
2022/09/15 05:22:01;;;;;;;15.52;9.75;;;;;;;;;;8291635;28;20035;-61
2022/09/15 05:26:02;;;;;;;15.13;10.18;;;;;;;;;;8288865;28;20662;-61
2022/09/15 05:30:03;;;;;;;14.90;10.20;;;;;;;;;;8289199;28;20044;-61
2022/09/15 05:34:04;;;;;;;15.95;11.15;;;;;;;;;;8291386;28;20052;-60
2022/09/15 05:38:04;;;;;;;14.73;12.18;;;;;;;;;;8290273;28;20112;-60
2022/09/15 05:42:04;;;;;;;15.03;11.03;;;;;;;;;;8290253;28;20072;-61
2022/09/15 05:46:06;;;;;;;15.03;10.93;;;;;;;;;;8289974;28;20044;-62
2022/09/15 05:50:06;;;;;;;17.50;12.35;;;;;;;;;;8288075;28;20835;-61
2022/09/15 05:54:06;;;;;;;16.00;10.37;;;;;;;;;;8289724;28;20022;-62
2022/09/15 05:58:07;;;;;;;15.40;11.18;;;;;;;;;;8291025;28;20257;-61
2022/09/15 06:02:08;;;;;;;12.73;10.43;;;;;;;;;;8285086;28;20036;-61
2022/09/15 06:06:08;;;;;;;15.52;11.40;;;;;;;;;;8291759;28;20039;-61
2022/09/15 06:10:09;;;;;;;15.25;10.40;;;;;;;;;;8288390;28;20085;-61
2022/09/15 06:14:12;;;;;;;12.38;10.38;;;;;;;;;;8289558;28;20056;-62
2022/09/15 06:18:12;;;;;;;13.57;10.50;;;;;;;;;;8286042;28;21010;-61
2022/09/15 06:22:12;;;;;;;18.05;10.15;;;;;;;;;;8288627;28;20459;-62
2022/09/15 06:26:14;;;;;;;16.15;9.57;;;;;;;;;;8287642;28;20025;-61
2022/09/15 06:30:14;;;;;;;13.23;9.35;;;;;;;;;;8290801;28;20022;-60
2022/09/15 06:34:14;;;;;;;14.02;9.23;;;;;;;;;;8289384;28;20029;-62
2022/09/15 06:38:15;;;;;;;10.10;8.43;;;;;;;;;;8290426;28;20033;-62
2022/09/15 06:42:15;;;;;;;10.57;8.65;;;;;;;;;;8290771;28;20037;-62
2022/09/15 06:46:17;;;;;;;13.63;8.90;;;;;;;;;;8288996;28;20045;-62
2022/09/15 06:50:17;;;;;;;10.88;8.32;;;;;;;;;;8286405;28;20345;-62
2022/09/15 06:54:17;;;;;;;9.87;8.20;;;;;;;;;;8291322;28;20030;-60
2022/09/15 06:58:17;;;;;;;16.45;8.02;;;;;;;;;;8284008;28;20072;-60
2022/09/15 07:02:17;;;;;;;11.85;8.23;;;;;;;;;;8284894;28;20518;-60
2022/09/15 07:06:18;;;;;;;9.77;7.30;;;;;;;;;;8295735;28;20025;-63
2022/09/15 07:10:18;;;;;;;9.65;6.97;;;;;;;;;;8287489;28;20067;-61
2022/09/15 07:14:18;;;;;;;8.33;7.00;;;;;;;;;;8297085;28;20021;-61
2022/09/15 07:18:18;;;;;;;13.13;7.75;;;;;;;;;;8289865;28;20033;-62
2022/09/15 07:22:18;;;;;;;9.77;6.80;;;;;;;;;;8297727;28;20042;-63
2022/09/15 07:26:21;;;;;;;11.32;6.80;;;;;;;;;;8291412;28;20045;-62
2022/09/15 07:30:21;;;;;;;11.77;6.70;;;;;;;;;;8294224;28;20138;-62
2022/09/15 07:34:21;;;;;;;10.43;6.68;;;;;;;;;;8292784;28;20480;-63
2022/09/15 07:38:22;;;;;;;10.85;6.22;;;;;;;;;;8291030;28;20757;-63
2022/09/15 07:42:22;;;;;;;10.98;6.22;;;;;;;;;;8289843;28;20033;-63
2022/09/15 07:46:23;;;;;;;8.82;6.53;;;;;;;;;;8291523;28;20384;-63
2022/09/15 07:50:23;;;;;;;12.10;7.10;;;;;;;;;;8294294;28;20343;-62
2022/09/15 07:54:23;;;;;;;9.93;6.80;;;;;;;;;;8294127;28;20028;-62
2022/09/15 07:58:24;;;;;;;12.50;6.72;;;;;;;;;;8292464;28;20176;-63
2022/09/15 08:02:24;;;;;;;12.18;6.97;;;;;;;;;;8294635;28;20043;-63
2022/09/15 08:06:25;;;;;;;8.02;5.70;;;;;;;;;;8294098;28;20975;-63
2022/09/15 08:10:25;;;;;;;10.88;6.50;;;;;;;;;;8290874;28;20106;-63
2022/09/15 08:14:26;;;;;;;8.03;5.83;;;;;;;;;;8286827;28;20025;-62
2022/09/15 08:18:26;;;;;;;9.50;5.88;;;;;;;;;;8289078;28;20462;-62
2022/09/15 08:22:26;;;;;;;8.30;5.63;;;;;;;;;;8292275;28;20028;-62
2022/09/15 08:26:27;;;;;;;8.50;5.90;;;;;;;;;;8293799;28;20036;-62
2022/09/15 08:30:27;;;;;;;8.60;5.38;;;;;;;;;;8291530;28;20045;-62
2022/09/15 08:34:29;;;;;;;10.75;6.30;;;;;;;;;;8289395;28;20867;-62
2022/09/15 08:38:30;;;;;;;9.73;6.55;;;;;;;;;;8292458;28;20132;-62
2022/09/15 08:42:30;;;;;;;8.60;6.07;;;;;;;;;;8294597;28;20043;-62
2022/09/15 08:46:39;;;;;;;9.30;5.90;;;;;;;;;;8291556;28;20040;-62
2022/09/15 08:50:41;;;;;;;12.55;5.82;;;;;;;;;;8289358;28;20112;-62
2022/09/15 08:54:41;;;;;;;8.30;5.72;;;;;;;;;;8292534;28;20658;-62
2022/09/15 08:58:42;;;;;;;9.57;6.40;;;;;;;;;;8291634;28;20627;-62
2022/09/15 09:03:04;;;;;;;10.43;6.53;;;;;;;;;;8292690;28;20896;-62
2022/09/15 09:07:12;;;;;;;11.90;6.13;;;;;;;;;;8291258;28;20116;-62
2022/09/15 09:11:15;;;;;;;9.57;6.45;;;;;;;;;;8289865;28;20030;-62
2022/09/15 09:15:23;;;;;;;8.95;6.18;;;;;;;;;;8290674;28;20021;-62
2022/09/15 09:19:38;;;;;;;8.93;6.57;;;;;;;;;;8290624;28;20050;-61
2022/09/15 09:23:47;;;;;;;9.20;6.93;;;;;;;;;;8292709;28;20501;-62
2022/09/15 09:27:48;;;;;;;11.68;7.10;;;;;;;;;;8292373;28;20099;-62
2022/09/15 09:31:49;;;;;;;7.88;6.80;;;;;;;;;;8285250;28;20096;-63
2022/09/15 09:35:53;;;;;;;8.25;6.95;;;;;;;;;;8291450;28;20021;-62
2022/09/15 09:39:53;;;;;;;7.85;6.43;;;;;;;;;;8292081;28;20911;-62
2022/09/15 09:43:54;;;;;;;8.63;7.32;;;;;;;;;;8290524;28;20029;-63
2022/09/15 09:47:59;;;;;;;13.95;7.97;;;;;;;;;;8286105;28;20037;-62
2022/09/15 09:52:02;;;;;;;11.85;7.80;;;;;;;;;;8288972;28;20442;-62
2022/09/15 09:56:14;;;;;;;12.00;7.50;;;;;;;;;;8292678;28;20026;-62
2022/09/15 10:00:34;;;;;;;11.32;7.40;;;;;;;;;;8286143;28;20036;-62
2022/09/15 10:04:35;;;;;;;9.60;7.45;;;;;;;;;;8283107;28;20152;-60
2022/09/15 10:08:36;;;;;;;11.57;8.15;;;;;;;;;;8287362;28;20569;-62
2022/09/15 10:12:40;;;;;;;10.95;8.57;;;;;;;;;;8288931;28;20029;-62
2022/09/15 10:16:40;;;;;;;9.82;8.25;;;;;;;;;;8292122;28;20033;-62
2022/09/15 10:20:48;;;;;;;9.77;7.88;;;;;;;;;;8287912;28;20052;-63
2022/09/15 10:24:49;;;;;;;10.18;7.60;;;;;;;;;;8285984;28;20703;-62
2022/09/15 10:29:07;;;;;;;9.90;7.88;;;;;;;;;;8285845;28;20037;-62
2022/09/15 10:33:18;;;;;;;8.93;8.02;;;;;;;;;;8290053;28;20044;-62
2022/09/15 10:37:21;;;;;;;8.73;7.82;;;;;;;;;;8291410;28;20087;-68
2022/09/15 10:41:22;;;;;;;9.55;7.10;;;;;;;;;;8297963;28;20433;-62
2022/09/15 10:45:33;;;;;;;7.63;6.55;;;;;;;;;;8291934;28;20103;-62
2022/09/15 10:49:34;;;;;;;12.20;6.47;;;;;;;;;;8295843;28;20557;-62
2022/09/15 10:53:53;;;;;;;7.60;5.75;;;;;;;;;;8297865;28;20096;-62
2022/09/15 10:58:12;;;;;;;6.20;5.22;;;;;;;;;;8294816;28;20072;-62
2022/09/15 11:02:30;;;;;;;6.45;5.13;;;;;;;;;;8292404;28;20038;-63
2022/09/15 11:06:54;;;;;;;8.98;5.10;;;;;;;;;;8293465;28;20697;-62
2022/09/15 11:11:02;;;;;;;5.65;4.70;;;;;;;;;;8288353;28;20096;-63
2022/09/15 11:15:18;;;;;;;5.30;4.55;;;;;;;;;;8291654;28;20033;-63
2022/09/15 11:19:37;;;;;;;4.78;3.85;;;;;;;;;;8291002;28;20477;-63
2022/09/15 11:23:43;;;;;;;5.78;3.60;;;;;;;;;;8293647;28;20072;-63
2022/09/15 11:27:47;;;;;;;4.07;3.67;;;;;;;;;;8296793;28;21013;-62
2022/09/15 11:31:50;;;;;;;4.20;3.03;;;;;;;;;;8294513;28;20048;-62
2022/09/15 11:36:02;;;;;;;2.93;2.67;;;;;;;;;;8295385;28;20107;-63
2022/09/15 11:40:12;;;;;;;3.20;2.72;;;;;;;;;;8287014;28;20021;-62
2022/09/15 11:44:21;;;;;;;3.05;2.35;;;;;;;;;;8290784;28;20033;-63
2022/09/15 11:48:21;;;;;;;4.35;2.67;;;;;;;;;;8292259;28;20148;-62
2022/09/15 11:52:25;;;;;;;3.53;2.60;;;;;;;;;;8291286;28;20057;-63
2022/09/15 11:56:28;;;;;;;3.83;2.50;;;;;;;;;;8291925;28;20263;-62
2022/09/15 12:00:30;;;;;;;3.42;2.50;;;;;;;;;;8286986;28;20045;-63
2022/09/15 12:04:34;;;;;;;3.38;2.65;;;;;;;;;;8283169;28;20127;-62
2022/09/15 12:08:43;;;;;;;4.65;2.67;;;;;;;;;;8285777;28;20026;-62
2022/09/15 12:12:45;;;;;;;4.13;2.63;;;;;;;;;;8314974;28;20064;-62
2022/09/15 12:16:45;;;;;;;4.47;2.63;;;;;;;;;;8283215;28;20028;-62
2022/09/15 12:20:55;;;;;;;4.85;2.58;;;;;;;;;;8280692;28;20021;-62
2022/09/15 12:25:04;;;;;;;3.80;2.55;;;;;;;;;;8283886;28;20041;-62
2022/09/15 12:29:24;;;;;;;3.00;2.22;;;;;;;;;;8282873;28;20033;-62
2022/09/15 12:33:43;;;;;;;3.35;2.20;;;;;;;;;;8275335;28;20506;-63
2022/09/15 12:37:47;;;;;;;2.90;1.90;;;;;;;;;;8281841;28;20421;-62
2022/09/15 12:41:48;;;;;;;2.92;1.98;;;;;;;;;;8287560;28;20022;-62
2022/09/15 12:45:56;;;;;;;3.42;2.08;;;;;;;;;;8286154;28;20371;-63
2022/09/15 12:50:18;;;;;;;3.15;1.90;;;;;;;;;;8283808;28;20521;-62
2022/09/15 12:54:25;;;;;;;4.05;2.25;;;;;;;;;;8280055;28;20108;-62
2022/09/15 12:58:32;;;;;;;2.67;1.40;;;;;;;;;;8284442;28;20018;-62
2022/09/15 13:02:40;;;;;;;4.53;1.60;;;;;;;;;;8279563;28;20065;-62
2022/09/15 13:07:00;;;;;;;1.90;1.20;;;;;;;;;;8283425;28;20963;-62
2022/09/15 13:11:04;;;;;;;3.28;1.58;;;;;;;;;;8283516;28;20505;-62
2022/09/15 13:15:05;;;;;;;2.45;1.45;;;;;;;;;;8273795;28;20025;-63
2022/09/15 13:19:11;;;;;;;3.20;1.40;;;;;;;;;;8278937;28;20498;-62
2022/09/15 13:23:13;;;;;;;1.60;1.50;;;;;;;;;;8282174;28;20033;-62
2022/09/15 13:27:15;;;;;;;3.88;1.60;;;;;;;;;;8281020;28;20028;-63
2022/09/15 13:31:24;;;;;;;2.97;1.63;;;;;;;;;;8281451;28;20629;-62
2022/09/15 13:35:36;;;;;;;3.50;1.40;;;;;;;;;;8282434;28;20030;-62
2022/09/15 13:39:48;;;;;;;3.13;1.42;;;;;;;;;;8281021;28;20339;-63
2022/09/15 13:43:51;;;;;;;2.95;1.38;;;;;;;;;;8280062;28;20528;-62
2022/09/15 13:48:10;;;;;;;2.20;1.48;;;;;;;;;;8281813;28;20136;-63
2022/09/15 13:52:10;;;;;;;2.38;1.42;;;;;;;;;;8280888;28;20025;-64
2022/09/15 13:56:15;;;;;;;3.83;1.60;;;;;;;;;;8283250;28;20049;-63
2022/09/15 14:00:16;;;;;;;3.15;1.60;;;;;;;;;;8279853;28;20033;-61
2022/09/15 14:04:21;;;;;;;2.05;1.50;;;;;;;;;;8282584;28;20036;-61
2022/09/15 14:08:25;;;;;;;1.88;1.50;;;;;;;;;;8282284;28;20067;-62
2022/09/15 14:12:25;;;;;;;2.42;1.48;;;;;;;;;;8288764;28;20489;-61
2022/09/15 14:16:25;;;;;;;4.22;1.40;;;;;;;;;;8286218;28;20037;-62
2022/09/15 14:20:27;;;;;;;1.45;1.30;;;;;;;;;;8288687;28;20330;-61
2022/09/15 14:24:29;;;;;;;2.50;1.40;;;;;;;;;;8285287;28;20127;-61
2022/09/15 14:28:33;;;;;;;1.77;1.20;;;;;;;;;;8286449;28;20739;-62
2022/09/15 14:32:36;;;;;;;2.15;1.45;;;;;;;;;;8287109;28;20046;-62
2022/09/15 14:36:36;;;;;;;6.77;1.40;;;;;;;;;;8287351;28;20436;-62
2022/09/15 14:40:38;;;;;;;1.73;1.40;;;;;;;;;;8287392;28;20029;-62
2022/09/15 14:44:38;;;;;;;1.67;1.30;;;;;;;;;;8288618;28;20196;-63
2022/09/15 14:48:38;;;;;;;3.10;1.40;;;;;;;;;;8284467;28;20410;-62
2022/09/15 14:52:40;;;;;;;2.35;1.40;;;;;;;;;;8290758;28;20888;-62
2022/09/15 14:56:41;;;;;;;2.03;1.40;;;;;;;;;;8287160;28;20025;-62
2022/09/15 15:00:53;;;;;;;1.50;1.20;;;;;;;;;;8276077;28;20706;-61
2022/09/15 15:04:57;;;;;;;1.83;1.67;;;;;;;;;;8285916;28;20075;-62
2022/09/15 15:09:05;;;;;;;2.92;1.52;;;;;;;;;;8288521;28;21082;-61
2022/09/15 15:13:07;;;;;;;2.72;1.75;;;;;;;;;;8286871;28;20021;-61
2022/09/15 15:17:22;;;;;;;2.42;1.48;;;;;;;;;;8286493;28;20042;-61
2022/09/15 15:21:31;;;;;;;1.95;1.50;;;;;;;;;;8285040;28;20191;-61
2022/09/15 15:25:31;;;;;;;2.85;1.60;;;;;;;;;;8287749;28;20111;-61
2022/09/15 15:29:42;;;;;;;2.67;1.67;;;;;;;;;;8288814;28;20765;-61
2022/09/15 15:33:54;;;;;;;2.35;1.60;;;;;;;;;;8283643;28;20471;-62
2022/09/15 15:38:12;;;;;;;2.08;1.42;;;;;;;;;;8287151;28;20024;-61
2022/09/15 15:42:14;;;;;;;1.30;1.20;;;;;;;;;;8282636;28;20032;-61
2022/09/15 15:46:34;;;;;;;2.30;1.73;;;;;;;;;;8286312;28;20037;-62
2022/09/15 15:50:34;;;;;;;1.50;1.40;;;;;;;;;;8281961;28;20032;-62
2022/09/15 15:54:34;;;;;;;2.05;1.60;;;;;;;;;;8285741;28;20028;-61
2022/09/15 15:58:34;;;;;;;1.67;1.40;;;;;;;;;;8287673;28;20029;-62
2022/09/15 16:02:34;;;;;;;3.08;1.55;;;;;;;;;;8280702;28;20422;-61
2022/09/15 16:06:35;;;;;;;1.77;1.42;;;;;;;;;;8284098;28;20040;-61
2022/09/15 16:10:37;;;;;;;2.05;1.60;;;;;;;;;;8286438;28;20035;-62
2022/09/15 16:14:37;;;;;;;2.53;1.60;;;;;;;;;;8282884;28;20056;-62
2022/09/15 16:18:38;;;;;;;4.22;1.70;;;;;;;;;;8285739;28;20033;-61
2022/09/15 16:22:39;;;;;;;2.83;1.60;;;;;;;;;;8284249;28;20087;-62
2022/09/15 16:26:40;;;;;;;2.78;1.50;;;;;;;;;;8285623;28;20087;-61
2022/09/15 16:30:40;;;;;;;1.80;1.45;;;;;;;;;;8286339;28;20363;-62
2022/09/15 16:34:40;;;;;;;2.80;1.60;;;;;;;;;;8286394;28;20025;-61
2022/09/15 16:38:41;;;;;;;2.42;1.48;;;;;;;;;;8284909;28;20054;-62
2022/09/15 16:42:41;;;;;;;5.82;1.80;;;;;;;;;;8287623;28;20171;-62
2022/09/15 16:46:41;;;;;;;4.55;1.90;;;;;;;;;;8280742;28;20037;-62
2022/09/15 16:50:42;;;;;;;3.72;1.80;;;;;;;;;;8281500;28;20192;-61
2022/09/15 16:54:43;;;;;;;3.10;1.95;;;;;;;;;;8284954;28;20024;-62
2022/09/15 16:58:43;;;;;;;5.57;1.67;;;;;;;;;;8284200;28;20361;-61
2022/09/15 17:02:44;;;;;;;3.87;1.60;;;;;;;;;;8281835;28;20037;-61
2022/09/15 17:06:44;;;;;;;5.65;1.73;;;;;;;;;;8288124;28;20306;-62
2022/09/15 17:10:45;;;;;;;7.03;2.03;;;;;;;;;;8290507;28;20559;-62
2022/09/15 17:14:45;;;;;;;6.28;2.08;;;;;;;;;;8285933;28;20018;-62
2022/09/15 17:18:46;;;;;;;5.25;2.13;;;;;;;;;;8286084;28;20038;-61
2022/09/15 17:22:46;;;;;;;2.83;1.83;;;;;;;;;;8284879;28;20029;-62
2022/09/15 17:26:47;;;;;;;2.03;1.50;;;;;;;;;;8287180;28;20044;-61
2022/09/15 17:30:54;;;;;;;3.55;2.10;;;;;;;;;;8285744;28;20033;-61
2022/09/15 17:34:54;;;;;;;2.10;1.50;;;;;;;;;;8288101;28;20111;-62
2022/09/15 17:38:54;;;;;;;4.93;1.80;;;;;;;;;;8287118;28;20025;-62
2022/09/15 17:42:54;;;;;;;5.55;2.08;;;;;;;;;;8285725;28;20837;-62
2022/09/15 17:46:55;;;;;;;2.30;1.95;;;;;;;;;;8286480;28;20787;-63
2022/09/15 17:50:55;;;;;;;3.33;1.90;;;;;;;;;;8284771;28;20017;-62
2022/09/15 17:54:55;;;;;;;4.45;1.88;;;;;;;;;;8282958;28;20184;-62
2022/09/15 17:58:55;;;;;;;2.08;1.60;;;;;;;;;;8285998;28;20022;-61
2022/09/15 18:03:00;;;;;;;3.63;1.75;;;;;;;;;;8278218;28;21185;-62
2022/09/15 18:07:00;;;;;;;4.10;2.30;;;;;;;;;;8281143;28;20025;-61
2022/09/15 18:11:01;;;;;;;7.38;2.10;;;;;;;;;;8274434;28;20545;-61
2022/09/15 18:15:02;;;;;;;4.85;1.90;;;;;;;;;;8274737;28;20685;-61
2022/09/15 18:19:02;;;;;;;2.22;1.80;;;;;;;;;;8289489;28;20041;-61
2022/09/15 18:23:02;;;;;;;3.00;1.83;;;;;;;;;;8290009;28;20116;-61
2022/09/15 18:27:02;;;;;;;6.20;2.10;;;;;;;;;;8288613;28;20204;-61
2022/09/15 18:31:03;;;;;;;2.67;1.83;;;;;;;;;;8286856;28;20443;-61
2022/09/15 18:35:03;;;;;;;2.78;1.90;;;;;;;;;;8275936;28;20335;-61
2022/09/15 18:39:04;;;;;;;3.47;2.20;;;;;;;;;;8275773;28;20561;-61
2022/09/15 18:43:04;;;;;;;4.32;2.22;;;;;;;;;;8275867;28;21372;-61
2022/09/15 18:47:04;;;;;;;3.22;1.90;;;;;;;;;;8275740;28;20123;-61
2022/09/15 18:51:08;;;;;;;3.20;1.90;;;;;;;;;;8277258;28;20013;-61
2022/09/15 18:55:11;;;;;;;8.50;2.65;;;;;;;;;;8280234;28;20550;-61
2022/09/15 18:59:11;;;;;;;2.73;2.10;;;;;;;;;;8281136;28;20076;-61
2022/09/15 19:03:12;;;;;;;4.70;2.00;;;;;;;;;;8282734;28;20512;-62
2022/09/15 19:07:13;;;;;;;4.47;2.33;;;;;;;;;;8284670;28;20017;-61
2022/09/15 19:11:13;;;;;;;4.20;1.88;;;;;;;;;;8283938;28;20168;-61
2022/09/15 19:15:13;;;;;;;6.63;1.83;;;;;;;;;;8281827;28;20281;-62
2022/09/15 19:19:14;;;;;;;5.25;2.30;;;;;;;;;;8284775;28;20509;-61
2022/09/15 19:23:14;;;;;;;4.73;2.47;;;;;;;;;;8282195;28;20048;-61
2022/09/15 19:27:15;;;;;;;4.63;2.10;;;;;;;;;;8278865;28;20260;-61
2022/09/15 19:31:15;;;;;;;3.95;2.25;;;;;;;;;;8277954;28;20252;-61
2022/09/15 19:35:15;;;;;;;4.80;2.10;;;;;;;;;;8279857;28;20044;-61
2022/09/15 19:39:15;;;;;;;3.28;2.10;;;;;;;;;;8281065;28;20109;-61
2022/09/15 19:43:15;;;;;;;3.50;2.03;;;;;;;;;;8282090;28;20041;-61
2022/09/15 19:47:16;;;;;;;3.72;2.00;;;;;;;;;;8281610;28;20034;-60
2022/09/15 19:51:16;;;;;;;2.80;2.20;;;;;;;;;;8284485;28;20040;-60
2022/09/15 19:55:17;;;;;;;5.03;2.47;;;;;;;;;;8278698;28;20045;-61
2022/09/15 19:59:18;;;;;;;2.88;2.30;;;;;;;;;;8283270;28;20067;-61
2022/09/15 20:03:19;;;;;;;2.30;2.10;;;;;;;;;;8281408;28;20037;-60
2022/09/15 20:07:19;;;;;;;3.70;2.28;;;;;;;;;;8279432;28;20021;-60
2022/09/15 20:11:19;;;;;;;3.55;1.90;;;;;;;;;;8282041;28;21107;-61
2022/09/15 20:15:19;;;;;;;5.03;2.00;;;;;;;;;;8292031;28;20897;-61
2022/09/15 20:19:20;;;;;;;3.63;1.80;;;;;;;;;;8281732;28;20605;-61
2022/09/15 20:23:20;;;;;;;2.58;1.90;;;;;;;;;;8280653;28;20033;-60
2022/09/15 20:27:20;;;;;;;5.40;1.80;;;;;;;;;;8282442;28;20036;-61
2022/09/15 20:31:23;;;;;;;5.18;1.60;;;;;;;;;;8278110;28;20038;-61
2022/09/15 20:35:23;;;;;;;4.28;1.73;;;;;;;;;;8281011;28;20026;-61
2022/09/15 20:39:24;;;;;;;3.33;1.70;;;;;;;;;;8279810;28;20448;-61
2022/09/15 20:43:25;;;;;;;2.88;1.50;;;;;;;;;;8278930;28;20036;-61
2022/09/15 20:47:26;;;;;;;2.53;1.50;;;;;;;;;;8281253;28;20676;-60
2022/09/15 20:51:30;;;;;;;2.08;1.80;;;;;;;;;;8278795;28;20049;-61
2022/09/15 20:55:30;;;;;;;2.50;1.58;;;;;;;;;;8281618;28;20022;-61
2022/09/15 20:59:30;;;;;;;2.83;1.33;;;;;;;;;;8281605;28;20039;-60
2022/09/15 21:03:31;;;;;;;4.53;1.48;;;;;;;;;;8282412;28;20037;-61
2022/09/15 21:07:31;;;;;;;2.47;1.25;;;;;;;;;;8284893;28;20555;-61
2022/09/15 21:11:32;;;;;;;1.83;1.40;;;;;;;;;;8281594;28;20103;-61
2022/09/15 21:15:33;;;;;;;4.25;1.15;;;;;;;;;;8282724;28;20588;-60
2022/09/15 21:19:36;;;;;;;2.40;1.40;;;;;;;;;;8282977;28;20061;-61
2022/09/15 21:24:02;;;;;;;1.88;1.27;;;;;;;;;;8280059;28;20520;-62
2022/09/15 21:28:02;;;;;;;3.97;1.40;;;;;;;;;;8286205;28;20569;-61
2022/09/15 21:32:02;;;;;;;2.85;1.30;;;;;;;;;;8282783;28;20577;-61
2022/09/15 21:36:06;;;;;;;3.83;1.13;;;;;;;;;;8280845;28;20356;-62
2022/09/15 21:40:08;;;;;;;4.03;1.50;;;;;;;;;;8282599;28;20018;-61
2022/09/15 21:44:08;;;;;;;1.90;1.20;;;;;;;;;;8280751;28;20017;-62
2022/09/15 21:48:08;;;;;;;2.75;1.30;;;;;;;;;;8281125;28;20269;-61
2022/09/15 21:52:09;;;;;;;6.40;1.05;;;;;;;;;;8281706;28;20032;-60
2022/09/15 21:56:10;;;;;;;3.40;1.30;;;;;;;;;;8282315;28;20075;-60
2022/09/15 22:00:11;;;;;;;2.58;1.35;;;;;;;;;;8284654;28;20076;-61
2022/09/15 22:04:11;;;;;;;4.60;1.42;;;;;;;;;;8312664;28;20120;-60
2022/09/15 22:08:12;;;;;;;5.40;1.30;;;;;;;;;;8313810;28;20017;-59
2022/09/15 22:12:12;;;;;;;2.78;1.15;;;;;;;;;;8314088;28;20437;-60
2022/09/15 22:16:14;;;;;;;1.63;1.48;;;;;;;;;;8316240;28;20053;-60
2022/09/15 22:20:14;;;;;;;2.63;1.30;;;;;;;;;;8314840;28;20386;-60
2022/09/15 22:24:15;;;;;;;4.47;1.40;;;;;;;;;;8314355;28;20974;-60
2022/09/15 22:28:15;;;;;;;1.35;1.20;;;;;;;;;;8323803;28;20036;-60
2022/09/15 22:32:15;;;;;;;3.72;1.20;;;;;;;;;;8316814;28;20500;-60
2022/09/15 22:36:19;;;;;;;3.47;1.30;;;;;;;;;;8318822;28;20055;-60
2022/09/15 22:40:19;;;;;;;6.25;1.52;;;;;;;;;;8318709;28;20057;-60
2022/09/15 22:44:20;;;;;;;2.90;1.40;;;;;;;;;;8320864;28;20021;-60
2022/09/15 22:48:20;;;;;;;2.58;1.30;;;;;;;;;;8317748;28;20059;-60
2022/09/15 22:52:20;;;;;;;2.78;1.50;;;;;;;;;;8316282;28;20033;-60
2022/09/15 22:56:20;;;;;;;2.80;1.40;;;;;;;;;;8321866;28;20034;-61
2022/09/15 23:00:22;;;;;;;2.58;1.25;;;;;;;;;;8317120;28;20075;-61
2022/09/15 23:04:22;;;;;;;2.85;1.33;;;;;;;;;;8320706;28;20373;-60
2022/09/15 23:08:22;;;;;;;2.47;1.20;;;;;;;;;;8317609;28;20181;-60
2022/09/15 23:12:22;;;;;;;1.90;1.25;;;;;;;;;;8320008;28;20608;-60
2022/09/15 23:16:23;;;;;;;3.95;1.20;;;;;;;;;;8315089;28;20491;-61
2022/09/15 23:20:23;;;;;;;3.53;1.30;;;;;;;;;;8319788;28;20021;-60
2022/09/15 23:24:24;;;;;;;3.78;1.30;;;;;;;;;;8319216;28;20033;-61
2022/09/15 23:28:24;;;;;;;4.60;1.30;;;;;;;;;;8319660;28;20057;-60
2022/09/15 23:32:24;;;;;;;2.90;1.30;;;;;;;;;;8318168;28;20287;-60
2022/09/15 23:36:24;;;;;;;3.83;1.30;;;;;;;;;;8318525;28;20576;-60
2022/09/15 23:40:25;;;;;;;2.65;1.17;;;;;;;;;;8316094;28;20071;-60
2022/09/15 23:44:26;;;;;;;2.42;1.20;;;;;;;;;;8317777;28;20218;-60
2022/09/15 23:48:26;;;;;;;2.25;1.17;;;;;;;;;;8316434;28;20529;-60
2022/09/15 23:52:26;;;;;;;1.63;1.27;;;;;;;;;;8317877;28;20055;-61
2022/09/15 23:56:26;;;;;;;3.25;1.33;;;;;;;;;;8318537;28;20056;-61
